Huvudsida
METAR-TAF:

METAR-TAF

Flygplatser :

Enontekis flygplats

Enontekis, Finland

latitud: 68-21-52N, longitud: 023-25-39E, höjd: 308 m

Aktuellt väderrapport

Denna rapport gjordes för 9 minuter sedan, klockan 19:20 UTC
Vind 5 kt från syd, varierande mellan syd/sydost och sydväst
Temperatur 18°C
Fuktighet 52%
Tryck 1008 hPa
Sikt 10 km eller mer
Inga moln under 1 500 m eller inga cumulonimbus

METAR: EFET 251920Z AUTO 19005KT 150V220 CAVOK 18/08 Q1008

Tid: 22:29 (19:29 UTC)


TAF: saknas

Aktuella väderrapporter och prognoser från 4000 flygplatser (METAR- och TAF-rapporter).

De tillgängliga stationerna syns som gula och röda prickar på kartan.

För musen över prickarna för att se namnen på stationerna.

Klicka sedan för att få väderrapporter och prognoser.

För att ändra kartan: Klicka på de gröna knapparna med ett svart kors på för att zooma in; den gröna knappen med ett streck på för att zooma ut; eller på de gröna pilarna för angränsande kartor.


METAR-TAF: